Gibsonia, Florida
Current Conditions -  °F | °C
As of 1:54 PM on Monday 20 Oct 2014 (Local Time) from KLAL Reporting Station
Scattered Clouds Scattered Clouds  
Wind Chill: 82°   Ceiling: Unl
Heat Index: 83°   Visibility: 15mi
Dew Point: 63°   Wind: 0mph
Humidity: 51%   Direction: NA
Pressure: 30"   Gusts: NA
Location:  28.088°N, 81.941°W
Report Text: KLAL 201754Z 00000KT 15SM SCT050 28/17 A3000
Loading
Personal Weather Stations






























Interactive Weather Map
Tropical Storm Tracking
New forecast layout! Learn more

10-Day Weather Forecast

Advertisements
Track Severe Weather on mobile